Time;durP1;ratioP1;P1;durP2;ratioP2;P2;SDS_P1;SDS_P2;PMS_P1;PMS_P2;Temp;Humidity;BMP_temperature;BMP_pressure;BME280_temperature;BME280_humidity;BME280_pressure;Samples;Min_cycle;Max_cycle;Signal;HPM_P1;HPM_P2
2022/07/22 00:02:21;;;;;;;11.00;7.37;;;20.50;99.90;;;;;;5010339;28;20512;-52
2022/07/22 00:04:47;;;;;;;10.03;7.90;;;20.40;99.90;;;;;;5017471;28;20456;-53
2022/07/22 00:07:14;;;;;;;7.73;7.13;;;20.40;99.90;;;;;;5016198;28;20471;-52
2022/07/22 00:09:41;;;;;;;8.57;7.87;;;20.40;99.90;;;;;;5027557;28;20451;-52
2022/07/22 00:12:08;;;;;;;9.03;8.23;;;20.40;99.90;;;;;;5018359;28;20455;-52
2022/07/22 00:14:34;;;;;;;8.63;7.93;;;20.40;99.90;;;;;;5019895;28;20486;-52
2022/07/22 00:17:01;;;;;;;8.43;7.40;;;20.40;99.90;;;;;;5017892;28;20488;-51
2022/07/22 00:19:29;;;;;;;7.93;7.30;;;20.40;99.90;;;;;;5011498;28;20525;-52
2022/07/22 00:21:55;;;;;;;9.70;8.13;;;20.40;99.90;;;;;;5013651;28;20463;-52
2022/07/22 00:24:22;;;;;;;8.33;7.37;;;20.30;99.90;;;;;;5012082;28;20459;-53
2022/07/22 00:26:49;;;;;;;8.70;7.80;;;20.30;99.90;;;;;;5007351;28;20479;-53
2022/07/22 00:29:15;;;;;;;7.67;7.03;;;20.40;99.90;;;;;;5021652;28;20502;-52
2022/07/22 00:31:42;;;;;;;8.03;7.23;;;20.40;99.90;;;;;;5009551;28;20472;-52
2022/07/22 00:34:08;;;;;;;8.90;7.53;;;20.40;99.90;;;;;;5021498;28;20455;-52
2022/07/22 00:36:36;;;;;;;8.10;7.30;;;20.40;99.90;;;;;;5010174;28;20487;-51
2022/07/22 00:39:04;;;;;;;10.23;7.00;;;20.40;99.90;;;;;;5013703;28;20460;-53
2022/07/22 00:41:30;;;;;;;13.33;6.63;;;20.40;99.90;;;;;;5017832;28;20514;-52
2022/07/22 00:44:01;;;;;;;9.07;7.23;;;20.40;99.90;;;;;;5015027;28;20508;-53
2022/07/22 00:46:29;;;;;;;8.07;7.13;;;20.40;99.90;;;;;;5017647;28;21008;-53
2022/07/22 00:48:56;;;;;;;8.50;7.20;;;20.40;99.90;;;;;;5010567;28;20472;-52
2022/07/22 00:51:24;;;;;;;12.53;7.70;;;20.40;98.10;;;;;;5012259;28;20464;-53
2022/07/22 00:53:53;;;;;;;11.90;6.33;;;20.40;23.90;;;;;;5011136;28;20494;-53
2022/07/22 00:56:20;;;;;;;6.83;6.30;;;20.40;27.10;;;;;;5005910;28;20542;-53
2022/07/22 00:58:48;;;;;;;11.00;6.10;;;20.30;37.60;;;;;;5023993;28;21048;-51
2022/07/22 01:01:15;;;;;;;8.03;6.50;;;20.30;46.80;;;;;;5015336;28;20455;-52
2022/07/22 01:03:42;;;;;;;7.80;6.17;;;20.30;52.70;;;;;;5023899;28;21031;-52
2022/07/22 01:06:10;;;;;;;6.40;5.20;;;20.30;63.10;;;;;;5010530;28;20995;-52
2022/07/22 01:08:39;;;;;;;5.53;5.03;;;20.30;67.10;;;;;;5021700;28;20535;-52
2022/07/22 01:11:11;;;;;;;5.93;5.40;;;20.30;73.10;;;;;;5016114;28;20525;-53
2022/07/22 01:13:38;;;;;;;6.10;5.50;;;20.30;78.40;;;;;;5011634;28;20459;-52
2022/07/22 01:16:07;;;;;;;5.53;5.13;;;20.20;78.00;;;;;;5013250;28;21040;-52
2022/07/22 01:18:34;;;;;;;5.47;5.07;;;20.20;81.90;;;;;;5011194;28;20913;-54
2022/07/22 01:21:02;;;;;;;9.03;4.97;;;20.20;85.90;;;;;;5007475;28;20516;-51
2022/07/22 01:23:28;;;;;;;7.73;5.00;;;20.20;87.90;;;;;;5012403;28;20514;-51
2022/07/22 01:25:55;;;;;;;5.17;4.77;;;20.10;91.70;;;;;;5011014;28;20517;-52
2022/07/22 01:28:23;;;;;;;4.63;4.23;;;20.10;93.10;;;;;;5018575;28;20464;-52
2022/07/22 01:30:50;;;;;;;5.10;4.70;;;20.10;91.10;;;;;;5020004;28;20464;-52
2022/07/22 01:33:17;;;;;;;6.10;4.70;;;20.10;94.80;;;;;;5010542;28;20474;-53
2022/07/22 01:35:44;;;;;;;6.70;3.97;;;20.10;95.10;;;;;;5007553;28;20460;-53
2022/07/22 01:38:11;;;;;;;4.20;3.80;;;20.10;90.80;;;;;;5011980;28;20488;-53
2022/07/22 01:40:39;;;;;;;4.83;4.43;;;20.00;93.40;;;;;;5007288;28;20467;-54
2022/07/22 01:43:06;;;;;;;5.20;4.80;;;20.00;93.00;;;;;;5018466;28;20492;-53
2022/07/22 01:45:34;;;;;;;4.30;3.90;;;20.00;91.20;;;;;;5016966;28;20460;-53
2022/07/22 01:48:01;;;;;;;4.53;4.23;;;20.00;87.70;;;;;;5012150;28;20507;-54
2022/07/22 01:50:28;;;;;;;4.40;4.07;;;20.00;87.50;;;;;;5011947;28;20478;-52
2022/07/22 01:52:54;;;;;;;4.77;4.47;;;20.00;83.70;;;;;;5004939;28;20495;-54
2022/07/22 01:55:22;;;;;;;7.23;4.23;;;20.00;80.20;;;;;;5013357;28;20865;-54
2022/07/22 01:57:49;;;;;;;6.23;4.27;;;19.90;84.50;;;;;;5002327;28;20578;-54
2022/07/22 02:00:16;;;;;;;4.67;4.37;;;19.90;84.80;;;;;;5012597;28;20447;-53
2022/07/22 02:02:43;;;;;;;4.80;4.20;;;19.90;83.20;;;;;;5016442;28;20591;-53
2022/07/22 02:05:10;;;;;;;6.73;4.20;;;19.80;81.30;;;;;;5009520;28;20460;-54
2022/07/22 02:07:36;;;;;;;4.13;3.93;;;19.80;79.40;;;;;;5010570;28;20568;-53
2022/07/22 02:10:05;;;;;;;4.50;4.10;;;19.80;82.30;;;;;;5011183;28;20581;-53
2022/07/22 02:12:33;;;;;;;4.63;4.23;;;19.80;80.60;;;;;;5015894;28;20487;-52
2022/07/22 02:14:59;;;;;;;4.50;4.10;;;19.80;77.20;;;;;;5019689;28;20495;-53
2022/07/22 02:17:26;;;;;;;8.93;4.30;;;19.80;78.00;;;;;;5009878;28;20541;-52
2022/07/22 02:19:53;;;;;;;4.63;4.10;;;19.80;77.20;;;;;;5011927;28;20464;-53
2022/07/22 02:22:20;;;;;;;8.03;5.23;;;19.70;76.10;;;;;;5016854;28;20487;-53
2022/07/22 02:24:46;;;;;;;4.73;4.20;;;19.70;73.40;;;;;;5014422;28;20474;-52
2022/07/22 02:27:13;;;;;;;4.73;3.80;;;19.70;73.10;;;;;;5007045;28;20858;-53
2022/07/22 02:29:41;;;;;;;4.40;4.00;;;19.70;71.50;;;;;;5014887;28;20494;-51
2022/07/22 02:32:08;;;;;;;5.00;4.53;;;19.60;70.10;;;;;;5008587;28;21016;-53
2022/07/22 02:34:34;;;;;;;4.10;3.80;;;19.60;69.80;;;;;;5010699;28;20522;-53
2022/07/22 02:37:01;;;;;;;7.47;4.80;;;19.50;69.70;;;;;;5007095;28;20528;-53
2022/07/22 02:39:27;;;;;;;4.77;4.37;;;19.50;68.70;;;;;;5012028;28;20471;-53
2022/07/22 02:41:54;;;;;;;4.93;4.50;;;19.50;66.10;;;;;;5008947;28;20494;-53
2022/07/22 02:44:21;;;;;;;4.00;3.80;;;19.50;66.80;;;;;;5004983;28;20495;-53
2022/07/22 02:46:49;;;;;;;4.70;4.30;;;19.50;64.10;;;;;;5023006;28;20521;-52
2022/07/22 02:49:15;;;;;;;4.90;4.40;;;19.50;63.90;;;;;;5005447;28;20871;-51
2022/07/22 02:51:42;;;;;;;4.07;3.70;;;19.40;58.10;;;;;;5005690;28;20519;-51
2022/07/22 02:54:08;;;;;;;4.63;4.33;;;19.40;59.30;;;;;;5013448;28;20454;-51
2022/07/22 02:56:35;;;;;;;4.40;4.10;;;19.40;58.30;;;;;;5018207;28;20526;-50
2022/07/22 02:59:02;;;;;;;4.43;4.07;;;19.30;55.30;;;;;;5018932;28;20460;-51
2022/07/22 03:01:28;;;;;;;7.80;4.70;;;19.30;55.00;;;;;;5015497;28;20550;-51
2022/07/22 03:03:56;;;;;;;6.63;5.10;;;19.30;53.30;;;;;;5013314;28;20456;-51
2022/07/22 03:06:23;;;;;;;5.43;4.50;;;19.30;53.60;;;;;;5014657;28;20912;-51
2022/07/22 03:08:50;;;;;;;11.50;4.40;;;19.30;53.90;;;;;;5013293;28;20459;-51
2022/07/22 03:11:16;;;;;;;4.73;4.33;;;19.20;53.40;;;;;;5012110;28;20495;-51
2022/07/22 03:13:43;;;;;;;5.83;5.23;;;19.20;50.30;;;;;;5009510;28;20549;-51
2022/07/22 03:16:09;;;;;;;4.57;4.17;;;19.20;50.10;;;;;;5022978;28;20478;-51
2022/07/22 03:18:36;;;;;;;5.07;4.67;;;19.20;47.30;;;;;;5011152;28;20519;-51
2022/07/22 03:21:04;;;;;;;5.73;4.67;;;19.10;46.40;;;;;;5014119;28;20525;-51
2022/07/22 03:23:31;;;;;;;5.03;4.60;;;19.10;46.30;;;;;;5008709;28;20533;-50
2022/07/22 03:25:58;;;;;;;4.83;4.43;;;19.10;43.70;;;;;;5024908;28;20558;-51
2022/07/22 03:28:24;;;;;;;5.00;4.50;;;19.10;43.80;;;;;;5010978;28;20490;-51
2022/07/22 03:30:51;;;;;;;5.10;4.67;;;19.10;42.20;;;;;;5013447;28;20513;-50
2022/07/22 03:33:17;;;;;;;5.33;4.27;;;19.00;39.70;;;;;;5017301;28;20502;-50
2022/07/22 03:35:44;;;;;;;5.37;4.90;;;19.00;37.90;;;;;;5012495;28;20474;-51
2022/07/22 03:38:12;;;;;;;5.10;4.60;;;19.00;34.50;;;;;;5016502;28;20547;-51
2022/07/22 03:40:38;;;;;;;12.20;4.67;;;19.00;34.40;;;;;;5011738;28;20492;-52
2022/07/22 03:43:06;;;;;;;5.03;4.50;;;19.00;34.70;;;;;;5021843;28;20518;-51
2022/07/22 03:45:32;;;;;;;5.27;4.80;;;19.10;34.40;;;;;;5026600;28;20482;-52
2022/07/22 03:47:59;;;;;;;5.30;4.80;;;19.00;36.50;;;;;;5013006;28;20530;-52
2022/07/22 03:50:26;;;;;;;4.83;4.20;;;19.00;37.10;;;;;;5016746;28;20490;-51
2022/07/22 03:52:52;;;;;;;4.43;4.10;;;19.10;35.90;;;;;;5015295;28;20514;-50
2022/07/22 03:55:21;;;;;;;6.23;5.60;;;19.10;37.20;;;;;;5015172;28;20894;-52
2022/07/22 03:57:48;;;;;;;6.10;5.23;;;19.00;39.40;;;;;;5005663;28;21000;-53
2022/07/22 04:00:15;;;;;;;5.80;5.40;;;19.00;37.60;;;;;;5017131;28;20903;-53
2022/07/22 04:02:41;;;;;;;5.00;4.60;;;19.00;34.40;;;;;;5011417;28;20517;-53
2022/07/22 04:05:08;;;;;;;7.17;5.17;;;19.00;34.60;;;;;;5014825;28;20546;-53
2022/07/22 04:07:34;;;;;;;4.97;4.63;;;19.00;35.50;;;;;;5021169;28;20515;-53
2022/07/22 04:10:05;;;;;;;5.37;4.97;;;19.00;34.50;;;;;;5024349;28;20521;-53
2022/07/22 04:12:34;;;;;;;6.47;5.80;;;19.10;38.30;;;;;;5022034;28;20444;-53
2022/07/22 04:15:00;;;;;;;7.83;5.73;;;19.10;39.30;;;;;;5010455;28;21020;-52
2022/07/22 04:17:27;;;;;;;7.20;6.27;;;19.10;42.20;;;;;;5010580;28;20931;-53
2022/07/22 04:19:53;;;;;;;9.97;5.53;;;19.10;43.80;;;;;;5009230;28;22246;-54
2022/07/22 04:22:20;;;;;;;6.73;5.60;;;19.10;43.80;;;;;;5010599;28;20526;-54
2022/07/22 04:24:46;;;;;;;5.63;5.23;;;19.10;42.10;;;;;;5006374;28;20514;-52
2022/07/22 04:27:13;;;;;;;6.70;6.20;;;19.10;41.20;;;;;;5019707;28;20511;-52
2022/07/22 04:29:41;;;;;;;6.87;6.27;;;19.10;40.20;;;;;;5021091;28;20499;-52
2022/07/22 04:32:08;;;;;;;6.40;5.90;;;19.10;43.60;;;;;;5009288;28;20518;-52
2022/07/22 04:34:34;;;;;;;7.13;6.53;;;19.10;42.90;;;;;;5018069;28;20525;-51
2022/07/22 04:37:01;;;;;;;6.90;6.20;;;19.10;43.80;;;;;;5006771;28;20534;-52
2022/07/22 04:39:27;;;;;;;6.77;6.17;;;19.10;43.40;;;;;;5002611;28;20499;-52
2022/07/22 04:41:54;;;;;;;7.03;6.43;;;19.10;43.70;;;;;;5011228;28;20880;-51
2022/07/22 04:44:20;;;;;;;9.10;7.13;;;19.10;43.80;;;;;;5010143;28;20460;-54
2022/07/22 04:46:48;;;;;;;14.83;7.40;;;19.10;43.90;;;;;;5008590;28;20515;-53
2022/07/22 04:49:15;;;;;;;9.03;7.40;;;19.10;43.10;;;;;;5023356;28;20494;-51
2022/07/22 04:51:42;;;;;;;7.87;7.23;;;19.10;42.40;;;;;;5020095;28;20511;-53
2022/07/22 04:54:08;;;;;;;11.27;6.53;;;19.10;41.30;;;;;;5019134;28;20499;-53
2022/07/22 04:56:35;;;;;;;8.40;7.67;;;19.10;41.10;;;;;;5000714;28;20523;-54
2022/07/22 04:59:01;;;;;;;8.57;7.87;;;19.10;42.30;;;;;;5009514;28;20530;-51
2022/07/22 05:01:28;;;;;;;8.60;7.87;;;19.10;43.30;;;;;;5011563;28;20566;-53
2022/07/22 05:03:56;;;;;;;8.60;7.80;;;19.10;39.80;;;;;;5021715;28;20475;-53
2022/07/22 05:06:22;;;;;;;10.83;7.30;;;19.10;40.90;;;;;;5004183;28;20507;-53
2022/07/22 05:08:49;;;;;;;8.60;7.80;;;19.10;40.10;;;;;;5013246;28;20488;-53
2022/07/22 05:11:16;;;;;;;8.60;7.90;;;19.10;39.40;;;;;;5009895;28;20975;-52
2022/07/22 05:13:42;;;;;;;8.00;7.23;;;19.10;40.00;;;;;;5015562;28;20455;-52
2022/07/22 05:16:09;;;;;;;8.33;7.63;;;19.20;40.90;;;;;;5012123;28;20460;-53
2022/07/22 05:18:36;;;;;;;8.87;8.07;;;19.20;39.30;;;;;;5007267;28;20515;-53
2022/07/22 05:21:04;;;;;;;8.57;7.87;;;19.20;44.90;;;;;;4997433;28;20497;-52
2022/07/22 05:23:31;;;;;;;8.40;7.47;;;19.20;45.20;;;;;;5011665;28;20904;-52
2022/07/22 05:25:58;;;;;;;8.80;7.70;;;19.30;53.80;;;;;;5006796;28;20471;-52
2022/07/22 05:28:25;;;;;;;8.77;7.83;;;19.40;49.90;;;;;;5013094;28;20496;-52
2022/07/22 05:30:51;;;;;;;9.33;8.43;;;19.50;51.40;;;;;;5006122;28;20551;-52
2022/07/22 05:33:18;;;;;;;9.73;8.07;;;19.50;56.50;;;;;;5010295;28;20498;-52
2022/07/22 05:35:45;;;;;;;7.97;7.13;;;19.60;62.30;;;;;;5005540;28;20500;-53
2022/07/22 05:38:13;;;;;;;9.67;8.77;;;19.60;61.20;;;;;;5012979;28;20492;-52
2022/07/22 05:40:39;;;;;;;9.63;8.63;;;19.70;69.30;;;;;;5009479;28;20503;-52
2022/07/22 05:43:06;;;;;;;9.90;8.93;;;19.70;71.40;;;;;;5011623;28;20522;-53
2022/07/22 05:45:33;;;;;;;10.73;9.63;;;19.60;76.00;;;;;;5008578;28;20468;-52
2022/07/22 05:48:00;;;;;;;12.67;10.93;;;19.60;79.00;;;;;;5024428;28;20506;-52
2022/07/22 05:50:27;;;;;;;11.63;9.47;;;19.70;84.50;;;;;;5016784;28;20483;-53
2022/07/22 05:52:54;;;;;;;11.43;9.70;;;19.70;83.70;;;;;;5031197;28;20469;-52
2022/07/22 05:55:22;;;;;;;12.03;9.60;;;19.60;88.00;;;;;;5007591;28;20487;-51
2022/07/22 05:57:48;;;;;;;11.90;8.80;;;19.70;86.20;;;;;;5016222;28;20563;-53
2022/07/22 06:00:16;;;;;;;11.30;8.90;;;19.60;86.40;;;;;;5005324;28;20508;-53
2022/07/22 06:02:42;;;;;;;8.57;7.63;;;19.60;82.10;;;;;;5010273;28;20985;-52
2022/07/22 06:05:09;;;;;;;11.43;9.67;;;19.60;80.80;;;;;;5014222;28;20948;-51
2022/07/22 06:07:35;;;;;;;10.23;9.23;;;19.70;81.40;;;;;;5014899;28;20502;-52
2022/07/22 06:10:02;;;;;;;12.30;9.77;;;19.70;82.30;;;;;;5010258;28;20942;-53
2022/07/22 06:12:30;;;;;;;10.73;9.30;;;19.60;86.50;;;;;;5010527;28;20495;-52
2022/07/22 06:14:57;;;;;;;13.70;10.10;;;19.70;89.20;;;;;;5009609;28;20468;-52
2022/07/22 06:17:23;;;;;;;13.53;10.67;;;19.70;90.30;;;;;;5012206;28;20935;-52
2022/07/22 06:19:50;;;;;;;9.30;8.40;;;19.70;90.80;;;;;;5004601;28;20461;-53
2022/07/22 06:22:17;;;;;;;10.07;9.07;;;19.70;90.90;;;;;;5015855;28;20487;-51
2022/07/22 06:24:44;;;;;;;8.83;8.10;;;19.70;89.60;;;;;;5008207;28;20456;-52
2022/07/22 06:27:11;;;;;;;11.33;10.23;;;19.70;90.90;;;;;;5023182;28;20501;-53
2022/07/22 06:29:40;;;;;;;9.77;8.87;;;19.70;91.10;;;;;;5008327;28;20582;-53
2022/07/22 06:32:07;;;;;;;11.00;10.00;;;19.70;88.80;;;;;;5009158;28;20468;-53
2022/07/22 06:34:34;;;;;;;12.10;9.10;;;19.70;96.50;;;;;;5007893;28;20495;-52
2022/07/22 06:37:00;;;;;;;9.80;8.10;;;19.80;92.90;;;;;;5018548;28;20930;-53
2022/07/22 06:39:27;;;;;;;9.90;7.97;;;19.80;90.70;;;;;;5004917;28;20590;-53
2022/07/22 06:41:53;;;;;;;10.13;9.00;;;19.80;90.30;;;;;;5011663;28;20455;-52
2022/07/22 06:44:20;;;;;;;8.87;8.07;;;19.80;94.90;;;;;;5012031;28;20545;-52
2022/07/22 06:46:48;;;;;;;9.40;8.60;;;19.90;93.40;;;;;;5010668;28;20504;-52
2022/07/22 06:49:14;;;;;;;9.33;8.53;;;19.90;99.90;;;;;;5002056;28;20526;-52
2022/07/22 06:51:41;;;;;;;15.90;8.27;;;20.00;99.90;;;;;;5010086;28;20471;-52
2022/07/22 06:54:08;;;;;;;10.77;9.70;;;20.00;99.90;;;;;;5006062;28;20521;-53
2022/07/22 06:56:34;;;;;;;8.80;7.93;;;20.10;99.90;;;;;;5003873;28;20511;-53
2022/07/22 06:59:01;;;;;;;11.83;8.90;;;20.10;99.90;;;;;;5005422;28;21021;-53
2022/07/22 07:01:27;;;;;;;8.97;8.17;;;20.10;99.90;;;;;;5013167;28;20526;-52
2022/07/22 07:03:55;;;;;;;9.80;8.50;;;20.20;99.90;;;;;;5023056;28;20530;-53
2022/07/22 07:06:22;;;;;;;11.17;8.70;;;20.20;99.90;;;;;;5014392;28;20514;-52
2022/07/22 07:08:48;;;;;;;8.57;7.70;;;20.30;99.90;;;;;;5018009;28;20494;-53
2022/07/22 07:11:15;;;;;;;8.03;7.30;;;20.40;99.90;;;;;;5002027;28;20986;-53
2022/07/22 07:13:41;;;;;;;8.40;7.60;;;20.40;99.90;;;;;;5016446;28;20896;-53
2022/07/22 07:16:08;;;;;;;8.17;7.57;;;20.50;99.90;;;;;;5008799;28;20460;-52
2022/07/22 07:18:35;;;;;;;6.97;6.43;;;20.50;99.90;;;;;;5026097;28;20536;-54
2022/07/22 07:21:04;;;;;;;7.47;6.77;;;20.50;99.90;;;;;;5008403;28;20496;-52
2022/07/22 07:23:30;;;;;;;6.73;6.23;;;20.50;99.90;;;;;;5006460;28;20494;-53
2022/07/22 07:25:57;;;;;;;7.73;7.03;;;20.60;99.90;;;;;;5009721;28;20521;-52
2022/07/22 07:28:24;;;;;;;6.40;5.97;;;20.70;99.90;;;;;;5017881;28;20489;-54
2022/07/22 07:30:51;;;;;;;7.17;6.47;;;20.70;99.90;;;;;;5002534;28;20487;-53
2022/07/22 07:33:17;;;;;;;5.63;5.23;;;20.80;99.90;;;;;;5014368;28;20558;-54
2022/07/22 07:35:44;;;;;;;6.53;5.93;;;20.80;99.90;;;;;;5011077;28;20494;-53
2022/07/22 07:38:12;;;;;;;6.27;5.67;;;20.90;99.90;;;;;;5019274;28;21007;-51
2022/07/22 07:40:38;;;;;;;6.80;6.20;;;20.90;99.90;;;;;;5012916;28;20487;-51
2022/07/22 07:43:05;;;;;;;6.97;6.37;;;20.90;99.90;;;;;;5011568;28;20491;-51
2022/07/22 07:45:32;;;;;;;5.90;5.50;;;21.00;99.90;;;;;;5012764;28;20483;-51
2022/07/22 07:48:00;;;;;;;6.40;5.90;;;21.00;99.90;;;;;;5010342;28;20479;-52
2022/07/22 07:50:27;;;;;;;6.93;6.33;;;21.10;99.90;;;;;;5022650;28;20964;-51
2022/07/22 07:52:53;;;;;;;7.03;6.30;;;21.30;99.90;;;;;;5015317;28;20479;-52
2022/07/22 07:55:23;;;;;;;6.83;6.33;;;21.30;99.90;;;;;;5018330;28;20961;-52
2022/07/22 07:57:50;;;;;;;6.30;5.80;;;21.40;99.90;;;;;;5007534;28;20514;-52
2022/07/22 08:00:20;;;;;;;5.50;5.20;;;21.40;99.90;;;;;;5005027;28;20475;-52
2022/07/22 08:02:47;;;;;;;5.97;5.43;;;21.50;99.90;;;;;;5015746;28;20463;-52
2022/07/22 08:05:14;;;;;;;6.00;5.53;;;21.40;99.90;;;;;;5014798;28;20543;-52
2022/07/22 08:07:41;;;;;;;5.90;5.40;;;21.50;99.90;;;;;;5009163;28;20881;-52
2022/07/22 08:10:09;;;;;;;6.33;5.83;;;21.40;99.90;;;;;;5011402;28;20489;-53
2022/07/22 08:12:37;;;;;;;6.70;5.97;;;21.40;99.90;;;;;;5007224;28;20461;-52
2022/07/22 08:15:05;;;;;;;5.73;5.23;;;21.40;99.90;;;;;;5011351;28;20901;-52
2022/07/22 08:17:32;;;;;;;6.47;5.90;;;21.30;99.90;;;;;;5013112;28;20491;-51
2022/07/22 08:19:58;;;;;;;6.70;6.00;;;21.40;99.90;;;;;;5015789;28;20519;-51
2022/07/22 08:22:25;;;;;;;8.10;6.73;;;21.30;99.90;;;;;;5009067;28;20514;-51
2022/07/22 08:24:53;;;;;;;5.90;5.50;;;21.30;99.90;;;;;;5009727;28;20507;-52
2022/07/22 08:27:20;;;;;;;5.93;5.50;;;21.50;99.90;;;;;;5007851;28;20485;-52
2022/07/22 08:29:48;;;;;;;7.30;6.73;;;21.70;99.90;;;;;;5009165;28;20488;-52
2022/07/22 08:32:15;;;;;;;5.73;5.33;;;21.70;99.90;;;;;;5004498;28;20484;-51
2022/07/22 08:34:42;;;;;;;7.83;6.93;;;21.70;99.90;;;;;;5005066;28;20468;-52
2022/07/22 08:37:08;;;;;;;6.97;6.37;;;21.70;99.90;;;;;;5008478;28;20518;-52
2022/07/22 08:39:35;;;;;;;6.37;5.80;;;21.60;99.90;;;;;;5011305;28;20494;-51
2022/07/22 08:42:02;;;;;;;6.90;6.30;;;21.60;99.90;;;;;;5011446;28;20526;-52
2022/07/22 08:44:30;;;;;;;6.70;5.60;;;21.60;99.90;;;;;;5004195;28;21027;-52
2022/07/22 08:46:59;;;;;;;8.77;5.40;;;21.70;99.90;;;;;;5006471;28;20538;-52
2022/07/22 08:49:26;;;;;;;5.67;5.17;;;21.80;99.90;;;;;;5015474;28;20873;-52
2022/07/22 08:51:52;;;;;;;5.70;5.30;;;21.80;99.90;;;;;;5010057;28;20943;-51
2022/07/22 08:54:19;;;;;;;6.27;5.00;;;22.00;99.90;;;;;;5010918;28;20487;-52
2022/07/22 08:56:47;;;;;;;5.50;5.00;;;22.10;99.90;;;;;;5008293;28;21000;-51
2022/07/22 08:59:14;;;;;;;5.80;5.30;;;22.10;99.90;;;;;;5007760;28;20516;-52
2022/07/22 09:02:03;;;;;;;5.73;5.00;;;22.00;99.90;;;;;;5017632;28;20534;-51
2022/07/22 09:04:30;;;;;;;5.77;5.37;;;21.90;99.90;;;;;;5008317;28;20491;-52
2022/07/22 09:06:57;;;;;;;5.20;4.87;;;21.80;99.90;;;;;;5005874;28;20494;-52
2022/07/22 09:09:31;;;;;;;5.47;5.00;;;21.70;99.90;;;;;;5016895;28;20840;-51
2022/07/22 09:12:05;;;;;;;6.43;5.80;;;21.60;99.90;;;;;;5022416;28;20879;-52
2022/07/22 09:14:45;;;;;;;4.90;4.30;;;21.40;99.90;;;;;;5022180;28;20923;-52
2022/07/22 09:17:25;;;;;;;5.37;4.90;;;21.30;99.90;;;;;;5001019;28;20537;-53
2022/07/22 09:19:52;;;;;;;4.43;4.17;;;21.10;99.90;;;;;;5012015;28;20490;-52
2022/07/22 09:22:32;;;;;;;5.10;4.70;;;21.00;99.90;;;;;;5009111;28;20493;-52
2022/07/22 09:24:59;;;;;;;4.83;4.50;;;20.90;99.90;;;;;;5012610;28;21032;-52
2022/07/22 09:27:27;;;;;;;9.10;4.70;;;20.90;99.90;;;;;;5011216;28;20861;-51
2022/07/22 09:29:56;;;;;;;5.60;5.10;;;20.80;99.90;;;;;;5012860;28;20496;-52
2022/07/22 09:32:24;;;;;;;3.43;3.23;;;20.90;99.90;;;;;;5012835;28;20952;-52
2022/07/22 09:34:50;;;;;;;4.53;4.07;;;20.90;99.90;;;;;;5011771;28;20494;-52
2022/07/22 09:37:17;;;;;;;3.43;3.13;;;21.00;99.90;;;;;;5007021;28;20487;-52
2022/07/22 09:39:44;;;;;;;3.73;3.37;;;21.10;99.90;;;;;;5007610;28;20515;-51
2022/07/22 09:42:11;;;;;;;3.97;3.20;;;21.30;99.90;;;;;;5006062;28;20893;-50
2022/07/22 09:44:37;;;;;;;2.50;2.40;;;21.30;99.90;;;;;;5006921;28;20460;-51
2022/07/22 09:47:04;;;;;;;2.50;2.40;;;21.40;99.90;;;;;;5019682;28;20514;-52
2022/07/22 09:49:33;;;;;;;2.90;2.30;;;21.40;99.90;;;;;;5015067;28;20447;-51
2022/07/22 09:52:00;;;;;;;2.87;2.57;;;21.40;99.90;;;;;;5009420;28;20456;-50
2022/07/22 09:54:28;;;;;;;3.13;2.93;;;21.30;99.90;;;;;;5009317;28;20494;-50
2022/07/22 09:56:55;;;;;;;2.70;2.50;;;21.20;99.90;;;;;;5012402;28;20538;-51
2022/07/22 09:59:21;;;;;;;3.43;3.23;;;21.10;99.90;;;;;;5010389;28;20530;-51
2022/07/22 10:01:51;;;;;;;4.50;4.30;;;21.00;99.90;;;;;;5019714;28;20501;-50
2022/07/22 10:04:21;;;;;;;4.13;3.83;;;21.00;99.90;;;;;;5005876;28;20496;-50
2022/07/22 10:06:50;;;;;;;3.90;3.70;;;20.90;99.90;;;;;;5010699;28;20527;-51
2022/07/22 10:09:18;;;;;;;4.27;4.07;;;20.80;99.90;;;;;;5007148;28;20506;-51
2022/07/22 10:11:46;;;;;;;4.60;4.30;;;20.70;99.90;;;;;;5008344;28;20468;-51
2022/07/22 10:14:14;;;;;;;4.43;4.00;;;20.70;99.90;;;;;;5000098;28;20464;-51
2022/07/22 10:16:42;;;;;;;5.07;4.73;;;20.80;99.90;;;;;;5009109;28;20526;-52
2022/07/22 10:19:09;;;;;;;5.33;4.60;;;20.80;99.90;;;;;;5012368;28;20517;-51
2022/07/22 10:21:36;;;;;;;5.67;5.27;;;20.70;99.90;;;;;;5004201;28;20530;-52
2022/07/22 10:24:11;;;;;;;5.27;4.87;;;20.70;99.90;;;;;;5005645;28;20456;-52
2022/07/22 10:26:48;;;;;;;6.13;5.53;;;20.60;99.90;;;;;;5008249;28;21416;-52
2022/07/22 10:29:25;;;;;;;6.07;5.63;;;20.60;99.90;;;;;;5021021;28;20889;-51
2022/07/22 10:32:24;;;;;;;6.80;6.20;;;20.70;99.90;;;;;;5021209;28;20458;-51
2022/07/22 10:35:23;;;;;;;6.27;5.87;;;20.70;99.90;;;;;;5006729;28;20477;-50
2022/07/22 10:37:52;;;;;;;7.13;6.47;;;20.60;99.90;;;;;;5013860;28;20495;-51
2022/07/22 10:40:21;;;;;;;5.90;5.50;;;20.50;99.90;;;;;;5015576;28;20510;-52
2022/07/22 10:43:10;;;;;;;7.67;6.97;;;20.50;99.90;;;;;;5011788;28;20460;-52
2022/07/22 10:45:39;;;;;;;9.17;7.40;;;20.60;99.90;;;;;;5005330;28;20487;-51
2022/07/22 10:48:08;;;;;;;9.10;7.80;;;20.60;99.90;;;;;;5006720;28;20985;-52
2022/07/22 10:51:06;;;;;;;8.30;7.60;;;20.60;99.90;;;;;;5015909;28;20960;-52
2022/07/22 10:53:44;;;;;;;7.03;6.53;;;20.70;99.90;;;;;;5008912;28;20527;-52
2022/07/22 10:56:21;;;;;;;10.10;6.50;;;20.80;99.90;;;;;;5012937;28;20505;-52
2022/07/22 10:58:53;;;;;;;7.10;6.50;;;21.10;99.90;;;;;;5017483;28;20494;-52
2022/07/22 11:01:22;;;;;;;7.77;7.10;;;21.30;99.90;;;;;;5011805;28;20459;-51
2022/07/22 11:03:49;;;;;;;8.60;6.93;;;21.40;99.90;;;;;;5009153;28;20966;-51
2022/07/22 11:06:19;;;;;;;8.73;8.00;;;21.50;99.90;;;;;;5017949;28;20466;-52
2022/07/22 11:08:49;;;;;;;9.97;7.80;;;21.50;99.90;;;;;;5012076;28;20506;-51
2022/07/22 11:11:17;;;;;;;7.20;6.60;;;21.50;99.90;;;;;;5004971;28;20492;-51
2022/07/22 11:13:45;;;;;;;6.77;6.17;;;21.50;99.90;;;;;;5010528;28;20459;-52
2022/07/22 11:16:17;;;;;;;5.80;5.30;;;21.50;99.90;;;;;;5022863;28;20462;-51
2022/07/22 11:18:48;;;;;;;4.50;4.20;;;21.50;99.90;;;;;;5013099;28;20490;-51
2022/07/22 11:21:17;;;;;;;5.13;4.60;;;21.40;99.90;;;;;;5017804;28;20490;-51
2022/07/22 11:23:44;;;;;;;5.97;5.23;;;21.50;99.90;;;;;;5017674;28;20469;-52
2022/07/22 11:26:15;;;;;;;5.47;5.07;;;21.60;99.90;;;;;;5021531;28;20510;-50
2022/07/22 11:28:45;;;;;;;5.53;5.13;;;21.80;99.90;;;;;;5015784;28;20467;-51
2022/07/22 11:31:16;;;;;;;4.47;4.20;;;21.70;99.90;;;;;;5013646;28;20517;-51
2022/07/22 11:33:43;;;;;;;4.90;4.60;;;21.80;99.90;;;;;;5009509;28;20470;-51
2022/07/22 11:36:10;;;;;;;4.90;4.60;;;21.80;99.90;;;;;;5016419;28;20467;-52
2022/07/22 11:38:45;;;;;;;6.33;5.10;;;21.70;99.90;;;;;;5014966;28;20467;-51
2022/07/22 11:41:12;;;;;;;4.67;4.37;;;21.50;99.90;;;;;;5009046;28;20487;-52
2022/07/22 11:43:40;;;;;;;3.43;3.13;;;21.50;99.90;;;;;;5008711;28;20814;-51
2022/07/22 11:46:08;;;;;;;3.73;3.53;;;21.30;99.90;;;;;;5013565;28;20498;-51
2022/07/22 11:48:35;;;;;;;3.23;3.07;;;21.20;99.90;;;;;;5005724;28;20504;-51
2022/07/22 11:51:02;;;;;;;3.60;3.30;;;21.10;99.90;;;;;;5021053;28;20915;-51
2022/07/22 11:53:29;;;;;;;2.80;2.70;;;21.00;99.90;;;;;;5012859;28;20466;-51
2022/07/22 11:55:59;;;;;;;2.67;2.57;;;21.00;99.90;;;;;;5000829;28;20460;-51
2022/07/22 11:58:40;;;;;;;2.40;2.30;;;20.90;99.90;;;;;;5020786;28;20526;-51
2022/07/22 12:01:10;;;;;;;2.77;2.67;;;21.00;99.90;;;;;;5005001;28;20529;-51
2022/07/22 12:03:38;;;;;;;3.37;3.07;;;20.90;99.90;;;;;;5015390;28;21013;-50
2022/07/22 12:06:08;;;;;;;2.47;2.37;;;20.90;99.90;;;;;;5022339;28;20487;-50
2022/07/22 12:08:36;;;;;;;1.87;1.77;;;20.90;99.90;;;;;;5026328;28;20463;-51
2022/07/22 12:11:03;;;;;;;2.80;2.60;;;20.90;99.90;;;;;;5012684;28;20462;-52
2022/07/22 12:13:31;;;;;;;3.37;3.17;;;20.80;99.90;;;;;;5005292;28;20526;-52
2022/07/22 12:15:58;;;;;;;3.10;3.00;;;20.80;99.90;;;;;;5016926;28;20464;-52
2022/07/22 12:18:27;;;;;;;3.03;2.93;;;20.80;99.90;;;;;;5012099;28;20488;-51
2022/07/22 12:20:55;;;;;;;6.93;3.57;;;20.80;99.90;;;;;;5011133;28;20519;-52
2022/07/22 12:23:24;;;;;;;3.30;3.10;;;20.80;99.90;;;;;;5016982;28;20523;-51
2022/07/22 12:25:57;;;;;;;3.80;3.50;;;20.70;99.90;;;;;;5010691;28;20513;-52
2022/07/22 12:28:25;;;;;;;3.90;3.60;;;20.70;99.90;;;;;;5019655;28;20517;-52
2022/07/22 12:30:53;;;;;;;6.60;3.50;;;20.70;99.90;;;;;;5020794;28;20475;-51
2022/07/22 12:33:20;;;;;;;3.93;3.50;;;20.80;99.90;;;;;;5019629;28;20514;-50
2022/07/22 12:36:02;;;;;;;3.90;3.60;;;20.90;99.90;;;;;;5013249;28;20522;-51
2022/07/22 12:38:28;;;;;;;6.00;3.47;;;21.00;99.90;;;;;;5007795;28;20463;-50
2022/07/22 12:40:56;;;;;;;5.53;3.10;;;21.00;99.90;;;;;;5009374;28;20518;-51
2022/07/22 12:43:26;;;;;;;3.30;3.10;;;21.10;99.90;;;;;;5010002;28;20966;-51
2022/07/22 12:45:53;;;;;;;3.47;3.27;;;21.10;99.90;;;;;;5016229;28;20460;-52
2022/07/22 12:48:20;;;;;;;3.50;3.20;;;21.10;99.90;;;;;;5012399;28;20483;-51
2022/07/22 12:50:56;;;;;;;3.20;3.00;;;21.10;99.90;;;;;;5017360;28;20479;-52